Time;durP1;ratioP1;P1;durP2;ratioP2;P2;SDS_P1;SDS_P2;PMS_P1;PMS_P2;Temp;Humidity;BMP_temperature;BMP_pressure;BME280_temperature;BME280_humidity;BME280_pressure;Samples;Min_cycle;Max_cycle;Signal;HPM_P1;HPM_P2
2021/03/08 00:01:40;;;;;;;27.98;10.55;;;0.50;91.10;;;;;;5012226;28;20662;-80
2021/03/08 00:04:06;;;;;;;22.88;9.18;;;0.50;90.80;;;;;;5011177;28;20034;-80
2021/03/08 00:06:33;;;;;;;20.60;10.57;;;0.50;90.90;;;;;;5009745;28;20299;-80
2021/03/08 00:08:58;;;;;;;22.67;10.40;;;0.50;90.90;;;;;;5003048;28;20121;-80
2021/03/08 00:11:24;;;;;;;25.30;10.80;;;0.40;90.80;;;;;;5010410;28;20120;-80
2021/03/08 00:13:49;;;;;;;23.15;11.40;;;0.40;90.50;;;;;;4999763;28;20047;-80
2021/03/08 00:16:15;;;;;;;21.77;10.77;;;0.40;91.00;;;;;;4987644;28;20467;-80
2021/03/08 00:18:41;;;;;;;26.00;11.52;;;0.30;90.90;;;;;;5022947;28;20048;-80
2021/03/08 00:21:06;;;;;;;18.73;9.52;;;0.40;90.70;;;;;;4972329;28;20126;-80
2021/03/08 00:23:32;;;;;;;27.83;11.98;;;0.30;90.80;;;;;;4963540;28;20041;-80
2021/03/08 00:25:57;;;;;;;22.13;10.93;;;0.30;90.70;;;;;;4970920;28;20077;-80
2021/03/08 00:28:23;;;;;;;25.80;10.43;;;0.30;90.80;;;;;;4986980;28;20115;-80
2021/03/08 00:30:48;;;;;;;21.38;10.50;;;0.30;90.50;;;;;;4993695;28;20064;-80
2021/03/08 00:33:14;;;;;;;30.17;10.73;;;0.40;90.80;;;;;;4980105;28;20045;-80
2021/03/08 00:35:39;;;;;;;27.13;11.32;;;0.30;90.80;;;;;;4981351;28;20044;-80
2021/03/08 00:38:06;;;;;;;24.75;11.57;;;0.30;91.00;;;;;;4987977;28;20048;-80
2021/03/08 00:40:31;;;;;;;25.38;11.18;;;0.20;90.70;;;;;;4968651;28;20441;-80
2021/03/08 00:42:57;;;;;;;26.23;10.88;;;0.30;91.20;;;;;;4951619;28;20096;-80
2021/03/08 00:45:23;;;;;;;28.70;11.18;;;0.20;91.10;;;;;;4959909;28;20640;-80
2021/03/08 00:47:49;;;;;;;25.42;12.20;;;0.10;91.50;;;;;;4993274;28;20524;-80
2021/03/08 00:50:21;;;;;;;25.42;11.75;;;0.10;91.60;;;;;;4980471;28;20063;-80
2021/03/08 00:52:46;;;;;;;20.42;9.82;;;0.10;91.60;;;;;;4984704;28;20044;-80
2021/03/08 00:55:13;;;;;;;28.08;12.02;;;0.10;91.10;;;;;;4977357;28;20103;-81
2021/03/08 00:57:39;;;;;;;26.88;11.38;;;0.10;91.10;;;;;;4968740;28;20045;-81
2021/03/08 01:00:08;;;;;;;22.77;11.10;;;0.10;91.40;;;;;;4985454;28;20045;-81
2021/03/08 01:02:34;;;;;;;24.60;10.18;;;0.00;91.50;;;;;;4972350;28;20604;-81
2021/03/08 01:04:59;;;;;;;19.10;9.55;;;0.00;91.00;;;;;;4960022;28;20037;-81
2021/03/08 01:07:25;;;;;;;23.05;10.15;;;0.00;90.70;;;;;;4980841;28;20541;-80
2021/03/08 01:09:50;;;;;;;27.63;10.52;;;0.00;90.70;;;;;;4983819;28;20073;-81
2021/03/08 01:12:16;;;;;;;23.30;10.05;;;0.00;91.00;;;;;;4991343;28;20052;-81
2021/03/08 01:14:42;;;;;;;24.02;9.38;;;0.00;91.00;;;;;;4971756;28;20038;-80
2021/03/08 01:17:07;;;;;;;20.70;10.15;;;0.00;91.30;;;;;;4971992;28;20063;-81
2021/03/08 01:19:34;;;;;;;27.02;12.10;;;-0.10;91.30;;;;;;4973900;28;20140;-81
2021/03/08 01:22:00;;;;;;;22.90;11.20;;;-0.10;91.40;;;;;;4993023;28;20521;-80
2021/03/08 01:24:25;;;;;;;23.85;10.93;;;-0.10;91.60;;;;;;5003966;28;20056;-80
2021/03/08 01:26:51;;;;;;;22.50;10.65;;;-0.10;91.90;;;;;;4983196;28;20084;-81
2021/03/08 01:29:16;;;;;;;26.17;11.57;;;-0.10;92.20;;;;;;4970624;28;20041;-80
2021/03/08 01:31:42;;;;;;;25.48;12.20;;;-0.10;92.20;;;;;;4973452;28;20042;-81
2021/03/08 01:34:07;;;;;;;20.63;10.05;;;-0.10;92.30;;;;;;5001036;28;20108;-80
2021/03/08 01:36:33;;;;;;;26.95;12.27;;;-0.10;92.50;;;;;;5023794;28;20025;-81
2021/03/08 01:38:58;;;;;;;23.50;12.20;;;-0.10;93.20;;;;;;4973650;28;20081;-80
2021/03/08 01:41:24;;;;;;;24.67;12.95;;;-0.10;93.50;;;;;;5016132;28;20044;-81
2021/03/08 01:43:49;;;;;;;25.98;12.73;;;-0.20;94.10;;;;;;4994689;28;20033;-80
2021/03/08 01:46:15;;;;;;;27.92;12.32;;;-0.20;94.20;;;;;;4972312;28;20050;-81
2021/03/08 01:48:41;;;;;;;29.90;12.10;;;-0.20;95.30;;;;;;4995490;28;20052;-81
2021/03/08 01:51:06;;;;;;;25.48;11.82;;;-0.20;95.40;;;;;;4971364;28;20045;-81
2021/03/08 01:53:35;;;;;;;26.08;12.55;;;-0.20;95.30;;;;;;4976623;28;20520;-81
2021/03/08 01:56:01;;;;;;;28.23;12.48;;;-0.20;95.80;;;;;;4974981;28;20045;-81
2021/03/08 01:58:27;;;;;;;23.67;11.88;;;-0.30;95.80;;;;;;4969074;28;20033;-80
2021/03/08 02:00:52;;;;;;;28.40;12.10;;;-0.20;96.30;;;;;;4995380;28;20082;-80
2021/03/08 02:03:18;;;;;;;32.78;13.43;;;-0.30;96.00;;;;;;4989615;28;20041;-80
2021/03/08 02:05:45;;;;;;;24.95;11.15;;;-0.30;96.00;;;;;;5010124;28;20054;-80
2021/03/08 02:08:13;;;;;;;29.90;11.85;;;-0.30;95.50;;;;;;5012031;28;20042;-80
2021/03/08 02:10:41;;;;;;;27.85;12.02;;;-0.10;95.10;;;;;;5012925;28;20042;-81
2021/03/08 02:13:24;;;;;;;28.10;11.93;;;-0.20;93.60;;;;;;5006386;28;20030;-80
2021/03/08 02:16:13;;;;;;;26.38;12.00;;;-0.10;93.00;;;;;;4963916;28;20577;-80
2021/03/08 02:18:59;;;;;;;31.42;12.27;;;-0.10;92.50;;;;;;4971683;28;20033;-80
2021/03/08 02:21:48;;;;;;;25.63;12.05;;;-0.20;92.40;;;;;;4973567;28;20207;-80
2021/03/08 02:24:31;;;;;;;25.35;12.48;;;-0.10;92.50;;;;;;4998522;28;20129;-80
2021/03/08 02:27:18;;;;;;;25.30;11.95;;;-0.10;92.40;;;;;;4993436;28;20029;-80
2021/03/08 02:29:56;;;;;;;25.80;11.82;;;-0.10;92.50;;;;;;4985025;28;20041;-80
2021/03/08 02:32:30;;;;;;;26.90;11.95;;;-0.20;92.30;;;;;;4978119;28;20029;-78
2021/03/08 02:35:07;;;;;;;23.50;12.48;;;-0.20;92.30;;;;;;4982862;28;20124;-80
2021/03/08 02:37:39;;;;;;;24.75;11.70;;;-0.30;92.30;;;;;;4975196;28;20032;-80
2021/03/08 02:40:11;;;;;;;27.08;12.35;;;-0.30;92.60;;;;;;4985082;28;20052;-81
2021/03/08 02:42:40;;;;;;;26.88;12.10;;;-0.40;92.80;;;;;;5000133;28;20037;-80
2021/03/08 02:45:08;;;;;;;28.25;12.70;;;-0.40;93.20;;;;;;4976284;28;20050;-79
2021/03/08 02:47:39;;;;;;;28.35;12.65;;;-0.40;93.00;;;;;;4987324;28;20509;-80
2021/03/08 02:50:06;;;;;;;30.42;12.82;;;-0.40;93.50;;;;;;4999337;28;20052;-80
2021/03/08 02:52:35;;;;;;;27.98;12.55;;;-0.40;93.50;;;;;;4990176;28;20549;-80
2021/03/08 02:55:02;;;;;;;31.27;13.27;;;-0.40;93.50;;;;;;4994789;28;20034;-80
2021/03/08 02:57:37;;;;;;;31.30;13.38;;;-0.40;93.50;;;;;;4999086;28;20036;-80
2021/03/08 03:00:08;;;;;;;24.25;12.23;;;-0.50;93.60;;;;;;4959511;28;20049;-80
2021/03/08 03:02:34;;;;;;;25.35;11.90;;;-0.50;93.50;;;;;;4975965;28;20121;-80
2021/03/08 03:05:05;;;;;;;33.03;13.18;;;-0.50;93.90;;;;;;4941712;28;20095;-80
2021/03/08 03:07:33;;;;;;;28.30;12.60;;;-0.60;93.80;;;;;;4981500;28;20128;-80
2021/03/08 03:10:01;;;;;;;31.05;14.52;;;-0.60;94.00;;;;;;4965750;28;20041;-81
2021/03/08 03:12:28;;;;;;;29.88;13.80;;;-0.60;94.20;;;;;;5010374;28;20287;-81
2021/03/08 03:14:54;;;;;;;30.77;13.40;;;-0.60;94.40;;;;;;4970605;28;20517;-80
2021/03/08 03:17:20;;;;;;;28.77;13.95;;;-0.60;94.90;;;;;;4997829;28;20095;-80
2021/03/08 03:19:51;;;;;;;38.13;14.45;;;-0.70;95.20;;;;;;4968909;28;20515;-80
2021/03/08 03:22:21;;;;;;;28.38;13.80;;;-0.70;95.20;;;;;;4998762;28;20537;-81
2021/03/08 03:24:49;;;;;;;31.80;14.45;;;-0.70;95.20;;;;;;4967820;28;20042;-81
2021/03/08 03:27:17;;;;;;;34.63;14.60;;;-0.70;95.50;;;;;;5019480;28;20025;-80
2021/03/08 03:29:43;;;;;;;33.38;14.43;;;-0.70;95.60;;;;;;4998351;28;20037;-80
2021/03/08 03:32:10;;;;;;;32.45;14.10;;;-0.80;95.90;;;;;;5000160;28;20465;-79
2021/03/08 03:34:36;;;;;;;32.13;14.65;;;-0.80;95.90;;;;;;5020168;28;20064;-79
2021/03/08 03:37:02;;;;;;;29.13;13.40;;;-0.80;96.30;;;;;;4966249;28;20088;-80
2021/03/08 03:39:29;;;;;;;38.38;13.60;;;-0.70;96.60;;;;;;5010454;28;20110;-80
2021/03/08 03:41:55;;;;;;;33.35;12.80;;;-0.80;96.40;;;;;;4984482;28;20480;-80
2021/03/08 03:44:21;;;;;;;32.38;13.68;;;-0.70;96.70;;;;;;4971709;28;20057;-80
2021/03/08 03:46:47;;;;;;;32.17;13.57;;;-0.80;96.50;;;;;;4966500;28;20132;-80
2021/03/08 03:49:17;;;;;;;33.80;13.50;;;-0.80;96.80;;;;;;4998549;28;20358;-80
2021/03/08 03:51:43;;;;;;;32.75;14.57;;;-0.80;96.70;;;;;;4991742;28;20146;-80
2021/03/08 03:54:09;;;;;;;28.17;12.90;;;-0.70;97.00;;;;;;4974302;28;20046;-80
2021/03/08 03:56:39;;;;;;;29.05;13.50;;;-0.70;96.90;;;;;;4996276;28;20041;-82
2021/03/08 03:59:43;;;;;;;32.75;13.98;;;-0.70;96.70;;;;;;4997075;28;20045;-81
2021/03/08 04:02:15;;;;;;;31.27;13.90;;;-0.70;96.80;;;;;;4926133;28;21384;-80
2021/03/08 04:04:56;;;;;;;32.72;14.77;;;-0.70;96.70;;;;;;4992495;28;20739;-80
2021/03/08 04:07:22;;;;;;;32.92;14.38;;;-0.70;96.50;;;;;;4969836;28;20747;-80
2021/03/08 04:09:54;;;;;;;28.83;13.27;;;-0.70;96.80;;;;;;4969180;28;20084;-80
2021/03/08 04:12:27;;;;;;;34.70;14.57;;;-0.70;96.80;;;;;;4970437;28;20303;-81
2021/03/08 04:14:56;;;;;;;30.88;14.02;;;-0.70;96.90;;;;;;4976203;28;20458;-80
2021/03/08 04:17:22;;;;;;;31.83;14.77;;;-0.80;96.80;;;;;;4994944;28;20478;-80
2021/03/08 04:19:52;;;;;;;29.35;13.82;;;-0.80;96.70;;;;;;5021659;28;20133;-81
2021/03/08 04:22:19;;;;;;;34.17;15.02;;;-0.90;96.80;;;;;;4996509;28;20030;-80
2021/03/08 04:24:46;;;;;;;32.03;14.73;;;-0.90;97.80;;;;;;4995979;28;20033;-81
2021/03/08 04:27:14;;;;;;;34.88;14.07;;;-0.90;97.70;;;;;;5010356;28;20022;-80
2021/03/08 04:29:42;;;;;;;31.90;13.85;;;-1.00;97.90;;;;;;4995113;28;20141;-81
2021/03/08 04:32:09;;;;;;;32.25;14.48;;;-1.00;98.00;;;;;;4982780;28;20029;-80
2021/03/08 04:34:36;;;;;;;32.63;14.13;;;-1.00;98.80;;;;;;4996108;28;20069;-80
2021/03/08 04:37:03;;;;;;;29.80;14.40;;;-1.00;99.30;;;;;;4971334;28;20037;-80
2021/03/08 04:39:34;;;;;;;39.67;15.25;;;-1.00;99.60;;;;;;4980421;28;20037;-80
2021/03/08 04:42:00;;;;;;;32.58;15.27;;;-1.10;99.90;;;;;;4994333;28;20184;-80
2021/03/08 04:44:26;;;;;;;34.05;14.90;;;-1.10;99.90;;;;;;4994858;28;20025;-80
2021/03/08 04:46:53;;;;;;;38.10;14.80;;;-1.00;99.90;;;;;;4966021;28;20033;-80
2021/03/08 04:49:19;;;;;;;32.58;14.90;;;-1.10;99.90;;;;;;4995147;28;20050;-82
2021/03/08 04:51:48;;;;;;;29.02;15.20;;;-1.10;99.90;;;;;;4999629;28;20057;-80
2021/03/08 04:54:17;;;;;;;31.17;14.38;;;-1.10;99.90;;;;;;5001960;28;20057;-80
2021/03/08 04:56:44;;;;;;;33.97;14.85;;;-1.20;99.90;;;;;;4970703;28;20099;-81
2021/03/08 04:59:11;;;;;;;38.47;15.48;;;-1.20;99.90;;;;;;5023668;28;20022;-81
2021/03/08 05:01:39;;;;;;;30.90;15.52;;;-1.20;99.90;;;;;;4999204;28;20041;-81
2021/03/08 05:04:08;;;;;;;33.85;16.10;;;-1.20;99.90;;;;;;4989131;28;20048;-81
2021/03/08 05:06:38;;;;;;;34.13;14.85;;;-1.20;99.90;;;;;;4984018;28;20029;-81
2021/03/08 05:09:06;;;;;;;32.95;15.43;;;-1.30;99.90;;;;;;4980827;28;20073;-81
2021/03/08 05:11:36;;;;;;;38.40;16.75;;;-1.20;99.90;;;;;;5001930;28;20163;-81
2021/03/08 05:14:11;;;;;;;33.38;15.15;;;-1.20;99.90;;;;;;4997544;28;20045;-81
2021/03/08 05:16:43;;;;;;;36.22;14.73;;;-1.20;99.90;;;;;;4998174;28;20041;-82
2021/03/08 05:19:12;;;;;;;33.35;16.23;;;-1.30;99.90;;;;;;5003843;28;20505;-80
2021/03/08 05:21:38;;;;;;;38.88;17.08;;;-1.30;99.90;;;;;;5026411;28;20139;-80
2021/03/08 05:24:05;;;;;;;36.28;15.80;;;-1.30;99.90;;;;;;4995272;28;20075;-80
2021/03/08 05:26:31;;;;;;;35.97;14.68;;;-1.30;99.90;;;;;;5025421;28;20036;-82
2021/03/08 05:28:58;;;;;;;32.22;14.55;;;-1.30;99.90;;;;;;4997410;28;20037;-81
2021/03/08 05:31:28;;;;;;;31.27;15.32;;;-1.30;99.90;;;;;;4994513;28;20068;-81
2021/03/08 05:34:00;;;;;;;35.05;16.88;;;-1.40;99.90;;;;;;5011091;28;20544;-81
2021/03/08 05:36:27;;;;;;;31.30;15.32;;;-1.40;99.90;;;;;;4953698;28;20073;-80
2021/03/08 05:38:54;;;;;;;38.38;14.95;;;-1.40;99.90;;;;;;4991251;28;20033;-81
2021/03/08 05:41:22;;;;;;;33.17;15.27;;;-1.40;99.90;;;;;;4990029;28;20139;-81
2021/03/08 05:43:50;;;;;;;33.30;16.77;;;-1.40;99.90;;;;;;5003572;28;20544;-81
2021/03/08 05:46:33;;;;;;;33.47;16.48;;;-1.50;99.90;;;;;;4985866;28;20036;-81
2021/03/08 05:49:05;;;;;;;35.28;15.38;;;-1.40;99.90;;;;;;4970440;28;20103;-82
2021/03/08 05:51:44;;;;;;;35.30;16.20;;;-1.40;99.90;;;;;;4947042;28;20045;-79
2021/03/08 05:54:53;;;;;;;32.55;15.98;;;-1.40;99.90;;;;;;5012438;28;20053;-80
2021/03/08 05:57:44;;;;;;;38.75;15.32;;;-1.40;99.90;;;;;;5017766;28;20155;-79
2021/03/08 06:00:47;;;;;;;39.50;17.08;;;-1.40;99.90;;;;;;5013935;28;20045;-79
2021/03/08 06:03:40;;;;;;;39.33;17.48;;;-1.40;99.90;;;;;;4987177;28;20041;-80
2021/03/08 06:06:22;;;;;;;39.90;17.60;;;-1.40;99.90;;;;;;5012913;28;20057;-80
2021/03/08 06:09:06;;;;;;;37.05;16.55;;;-1.40;99.90;;;;;;5013007;28;20089;-80
2021/03/08 06:11:33;;;;;;;33.17;16.50;;;-1.40;99.90;;;;;;5028137;28;20045;-78
2021/03/08 06:14:00;;;;;;;35.40;16.70;;;-1.30;99.90;;;;;;5010065;28;20041;-79
2021/03/08 06:16:36;;;;;;;42.83;17.23;;;-1.30;99.90;;;;;;5012940;28;20099;-79
2021/03/08 06:19:04;;;;;;;40.45;17.33;;;-1.30;99.90;;;;;;5013588;28;20046;-79
2021/03/08 06:21:35;;;;;;;39.33;16.77;;;-1.30;99.90;;;;;;5013144;28;20057;-78
2021/03/08 06:24:03;;;;;;;37.15;16.25;;;-1.20;99.90;;;;;;5011429;28;20089;-80
2021/03/08 06:26:29;;;;;;;35.05;15.77;;;-1.20;99.90;;;;;;5011228;28;20073;-78
2021/03/08 06:28:57;;;;;;;39.25;16.13;;;-1.10;99.90;;;;;;5015440;28;20041;-79
2021/03/08 06:31:24;;;;;;;40.75;18.27;;;-1.00;99.90;;;;;;5007159;28;20124;-80
2021/03/08 06:33:49;;;;;;;42.47;16.73;;;-1.00;99.90;;;;;;5010019;28;20034;-79
2021/03/08 06:36:18;;;;;;;44.40;16.85;;;-1.00;99.90;;;;;;5015809;28;20117;-79
2021/03/08 06:38:43;;;;;;;34.88;16.88;;;-0.90;99.90;;;;;;5008188;28;20044;-80
2021/03/08 06:41:09;;;;;;;34.42;16.83;;;-0.90;99.90;;;;;;5006885;28;20693;-79
2021/03/08 06:43:36;;;;;;;33.35;15.95;;;-0.80;99.90;;;;;;5019029;28;20056;-79
2021/03/08 06:46:03;;;;;;;36.67;16.67;;;-0.70;99.90;;;;;;5008126;28;21469;-78
2021/03/08 06:48:29;;;;;;;34.83;16.73;;;-0.60;99.90;;;;;;5019140;28;20041;-78
2021/03/08 06:51:17;;;;;;;35.83;15.80;;;-0.50;99.90;;;;;;5006351;28;20033;-78
2021/03/08 06:53:44;;;;;;;33.10;15.15;;;-0.40;99.90;;;;;;5003483;28;20152;-79
2021/03/08 06:56:28;;;;;;;37.50;15.38;;;-0.30;99.90;;;;;;5008952;28;20113;-80
2021/03/08 06:59:05;;;;;;;46.40;17.35;;;-0.20;99.90;;;;;;5005051;28;20033;-78
2021/03/08 07:01:32;;;;;;;41.42;16.55;;;0.20;99.90;;;;;;5004014;28;20030;-76
2021/03/08 07:04:00;;;;;;;32.95;16.00;;;0.80;99.90;;;;;;5007549;28;20391;-79
2021/03/08 07:06:26;;;;;;;33.70;15.30;;;1.20;99.90;;;;;;5018656;28;20421;-77
2021/03/08 07:09:01;;;;;;;35.70;15.52;;;1.70;99.90;;;;;;5006408;28;20117;-77
2021/03/08 07:11:27;;;;;;;31.30;15.57;;;1.90;97.20;;;;;;5011922;28;20037;-77
2021/03/08 07:13:54;;;;;;;31.83;15.98;;;2.00;95.70;;;;;;5007997;28;20489;-79
2021/03/08 07:16:19;;;;;;;32.95;14.07;;;2.30;94.90;;;;;;5010190;28;20110;-79
2021/03/08 07:18:57;;;;;;;33.50;15.93;;;2.40;92.10;;;;;;5021093;28;20123;-78
2021/03/08 07:21:23;;;;;;;35.90;17.13;;;2.20;92.50;;;;;;5010249;28;20064;-78
2021/03/08 07:23:49;;;;;;;29.25;14.10;;;2.30;92.60;;;;;;5008940;28;20070;-78
2021/03/08 07:26:19;;;;;;;38.40;15.55;;;2.70;91.30;;;;;;5012332;28;20041;-78
2021/03/08 07:29:12;;;;;;;31.65;14.65;;;2.80;90.10;;;;;;5004708;28;20048;-78
2021/03/08 07:31:51;;;;;;;34.92;14.38;;;2.80;89.50;;;;;;5009509;28;20045;-79
2021/03/08 07:34:18;;;;;;;28.80;14.30;;;2.70;87.80;;;;;;5022838;28;20310;-78
2021/03/08 07:36:55;;;;;;;25.95;13.85;;;2.60;88.80;;;;;;5009722;28;20034;-78
2021/03/08 07:39:21;;;;;;;27.92;14.00;;;2.40;87.90;;;;;;5008446;28;20057;-78
2021/03/08 07:42:00;;;;;;;29.00;14.43;;;2.10;87.80;;;;;;5009870;28;20037;-79
2021/03/08 07:44:28;;;;;;;26.95;14.60;;;2.20;88.70;;;;;;5010915;28;20049;-79
2021/03/08 07:47:18;;;;;;;33.10;13.80;;;2.20;88.70;;;;;;5010415;28;20042;-78
2021/03/08 07:49:43;;;;;;;31.00;15.18;;;2.20;89.50;;;;;;5007005;28;20030;-78
2021/03/08 07:52:15;;;;;;;30.23;14.25;;;2.40;88.20;;;;;;5015079;28;20030;-77
2021/03/08 07:54:54;;;;;;;30.95;14.95;;;2.30;89.00;;;;;;5007613;28;20038;-78
2021/03/08 07:57:21;;;;;;;31.02;15.85;;;2.30;88.60;;;;;;5011629;28;20048;-78
2021/03/08 07:59:47;;;;;;;43.15;15.05;;;2.40;88.40;;;;;;5009836;28;20037;-78
2021/03/08 08:02:12;;;;;;;29.17;12.77;;;3.10;87.30;;;;;;5011933;28;20030;-78
2021/03/08 08:04:38;;;;;;;34.22;14.68;;;3.30;82.20;;;;;;5005466;28;20026;-78
2021/03/08 08:07:06;;;;;;;34.13;15.50;;;3.40;81.50;;;;;;5016222;28;20034;-79
2021/03/08 08:09:38;;;;;;;29.48;14.85;;;3.50;79.30;;;;;;5017963;28;20155;-77
2021/03/08 08:12:09;;;;;;;33.83;13.68;;;3.10;78.40;;;;;;5008967;28;20697;-76
2021/03/08 08:14:39;;;;;;;27.17;13.93;;;3.30;78.70;;;;;;5011225;28;20072;-77
2021/03/08 08:17:07;;;;;;;36.42;16.17;;;3.10;78.00;;;;;;5004328;28;20621;-79
2021/03/08 08:19:39;;;;;;;31.73;15.48;;;3.00;79.00;;;;;;5013689;28;20041;-78
2021/03/08 08:22:08;;;;;;;28.95;15.60;;;3.10;79.40;;;;;;5006483;28;20427;-78
2021/03/08 08:24:34;;;;;;;31.17;14.45;;;3.30;78.50;;;;;;5004319;28;20518;-77
2021/03/08 08:27:00;;;;;;;31.80;15.02;;;3.70;77.90;;;;;;5006807;28;20049;-77
2021/03/08 08:29:27;;;;;;;30.23;14.05;;;4.40;76.00;;;;;;5008985;28;20026;-77
2021/03/08 08:32:04;;;;;;;29.17;13.40;;;5.00;70.80;;;;;;5007635;28;20038;-77
2021/03/08 08:34:42;;;;;;;30.55;13.60;;;5.40;67.40;;;;;;5010022;28;20514;-77
2021/03/08 08:37:15;;;;;;;28.33;12.95;;;5.80;65.20;;;;;;5009208;28;20033;-77
2021/03/08 08:40:04;;;;;;;33.15;13.98;;;6.50;62.50;;;;;;5011016;28;20042;-77
2021/03/08 08:42:31;;;;;;;28.33;13.35;;;7.00;58.50;;;;;;5013621;28;20557;-79
2021/03/08 08:44:58;;;;;;;31.60;13.65;;;6.80;56.60;;;;;;5008818;28;20034;-79
2021/03/08 08:47:31;;;;;;;28.17;12.70;;;6.30;57.30;;;;;;5015433;28;20038;-79
2021/03/08 08:50:05;;;;;;;22.92;11.88;;;5.90;58.10;;;;;;5008338;28;20061;-78
2021/03/08 08:52:44;;;;;;;24.27;12.38;;;6.70;57.00;;;;;;5017780;28;20096;-76
2021/03/08 08:55:10;;;;;;;32.20;12.98;;;6.60;55.30;;;;;;5013239;28;20033;-75
2021/03/08 08:57:36;;;;;;;21.50;11.52;;;6.80;56.30;;;;;;5014913;28;20036;-78
2021/03/08 09:00:20;;;;;;;20.33;11.88;;;6.10;55.70;;;;;;5026957;28;20034;-78
2021/03/08 09:02:46;;;;;;;23.45;12.60;;;5.90;55.60;;;;;;5019849;28;20084;-77
2021/03/08 09:05:35;;;;;;;24.20;11.52;;;5.90;56.70;;;;;;5015877;28;20037;-77
2021/03/08 09:08:28;;;;;;;22.00;12.77;;;6.30;55.40;;;;;;5012614;28;20034;-79
2021/03/08 09:10:54;;;;;;;24.67;12.38;;;7.80;52.20;;;;;;5013485;28;20091;-78
2021/03/08 09:13:22;;;;;;;25.20;12.77;;;7.30;48.60;;;;;;5016579;28;20041;-78
2021/03/08 09:15:48;;;;;;;26.42;12.60;;;7.90;49.30;;;;;;5013633;28;20042;-78
2021/03/08 09:18:13;;;;;;;25.70;12.65;;;8.70;47.10;;;;;;5015160;28;20054;-79
2021/03/08 09:20:40;;;;;;;22.13;11.68;;;9.00;46.10;;;;;;5017286;28;20044;-78
2021/03/08 09:23:21;;;;;;;26.27;12.35;;;9.50;43.40;;;;;;5016985;28;20116;-78
2021/03/08 09:25:59;;;;;;;19.65;11.15;;;10.40;37.20;;;;;;5017788;28;20037;-78
2021/03/08 09:28:25;;;;;;;17.77;10.75;;;10.90;35.00;;;;;;5021668;28;20117;-77
2021/03/08 09:30:50;;;;;;;20.08;11.75;;;10.70;33.50;;;;;;5017339;28;20558;-78
2021/03/08 09:33:18;;;;;;;23.13;12.20;;;11.40;32.80;;;;;;5016444;28;20041;-78
2021/03/08 09:35:45;;;;;;;20.30;11.55;;;11.40;33.50;;;;;;5018736;28;20081;-78
2021/03/08 09:38:16;;;;;;;23.98;11.45;;;11.70;32.70;;;;;;5030489;28;20057;-76
2021/03/08 09:40:50;;;;;;;27.40;10.45;;;11.40;30.70;;;;;;5009995;28;20056;-76
2021/03/08 09:43:33;;;;;;;27.40;11.68;;;12.00;28.80;;;;;;5021230;28;20119;-77
2021/03/08 09:46:16;;;;;;;20.38;11.73;;;11.60;28.50;;;;;;5013434;28;20045;-77
2021/03/08 09:48:50;;;;;;;26.05;10.98;;;12.10;28.50;;;;;;5014064;28;20045;-77
2021/03/08 09:51:17;;;;;;;23.27;12.13;;;12.60;26.80;;;;;;5016184;28;20029;-78
2021/03/08 09:53:52;;;;;;;19.55;11.80;;;13.10;27.40;;;;;;5015917;28;20040;-77
2021/03/08 09:56:19;;;;;;;;;;;14.00;25.20;;;;;;5023953;28;20036;-78
2021/03/08 09:58:44;;;;;;;19.63;11.10;;;14.20;22.40;;;;;;5016155;28;19929;-78
2021/03/08 10:01:11;;;;;;;25.52;11.02;;;13.40;23.30;;;;;;5022726;28;20034;-78
2021/03/08 10:03:36;;;;;;;16.90;10.57;;;13.00;23.60;;;;;;5014514;28;20686;-78
2021/03/08 10:06:02;;;;;;;19.23;11.02;;;13.50;22.50;;;;;;5015514;28;20103;-79
2021/03/08 10:08:31;;;;;;;23.75;11.05;;;13.30;22.00;;;;;;5009691;28;20461;-79
2021/03/08 10:10:58;;;;;;;16.90;10.55;;;13.20;21.60;;;;;;5009891;28;20562;-80
2021/03/08 10:13:25;;;;;;;23.08;10.90;;;13.40;22.40;;;;;;5008320;28;20057;-80
2021/03/08 10:15:53;;;;;;;15.98;9.85;;;13.50;21.80;;;;;;5011578;28;20103;-78
2021/03/08 10:18:24;;;;;;;20.80;10.18;;;13.90;21.60;;;;;;5007323;28;20472;-76
2021/03/08 10:20:57;;;;;;;17.05;10.32;;;13.30;21.10;;;;;;5014899;28;20033;-79
2021/03/08 10:23:23;;;;;;;18.83;10.35;;;12.90;20.20;;;;;;5018091;28;20454;-79
2021/03/08 10:25:49;;;;;;;22.08;10.07;;;12.90;20.90;;;;;;5012011;28;20046;-79
2021/03/08 10:28:15;;;;;;;16.15;10.10;;;13.00;20.80;;;;;;5013438;28;20498;-77
2021/03/08 10:30:41;;;;;;;17.40;9.90;;;13.20;22.00;;;;;;5016117;28;20134;-78
2021/03/08 10:33:17;;;;;;;24.00;10.40;;;13.80;21.30;;;;;;5009324;28;20041;-77
2021/03/08 10:35:50;;;;;;;16.08;9.25;;;13.30;21.10;;;;;;5007621;28;20085;-77
2021/03/08 10:38:38;;;;;;;15.00;8.57;;;13.80;20.10;;;;;;5009052;28;20073;-78
2021/03/08 10:41:05;;;;;;;16.20;9.85;;;13.20;19.70;;;;;;5008987;28;20494;-78
2021/03/08 10:43:31;;;;;;;19.30;10.35;;;12.40;20.60;;;;;;5007756;28;20091;-78
2021/03/08 10:46:00;;;;;;;18.50;10.80;;;12.10;21.40;;;;;;5011721;28;20041;-78
2021/03/08 10:48:27;;;;;;;18.20;8.98;;;12.60;22.30;;;;;;5019348;28;20161;-78
2021/03/08 10:50:55;;;;;;;16.20;8.88;;;12.70;21.80;;;;;;5010212;28;20108;-78
2021/03/08 10:53:22;;;;;;;12.98;8.32;;;12.50;20.00;;;;;;5016190;28;20469;-79
2021/03/08 10:55:49;;;;;;;18.17;9.57;;;12.80;20.10;;;;;;5015998;28;20037;-78
2021/03/08 10:58:15;;;;;;;13.70;8.57;;;13.30;20.60;;;;;;5014893;28;20056;-79
2021/03/08 11:00:44;;;;;;;13.40;8.73;;;13.10;20.20;;;;;;5008343;28;20100;-79
2021/03/08 11:03:35;;;;;;;15.45;8.15;;;13.80;19.60;;;;;;5008755;28;20052;-78
2021/03/08 11:06:11;;;;;;;17.80;9.40;;;13.60;19.00;;;;;;5018161;28;20045;-78
2021/03/08 11:08:39;;;;;;;12.10;7.57;;;13.80;18.70;;;;;;5008196;28;20510;-79
2021/03/08 11:11:14;;;;;;;19.25;7.88;;;13.70;18.90;;;;;;5009523;28;20742;-78
2021/03/08 11:13:40;;;;;;;17.73;9.32;;;14.00;18.70;;;;;;5010185;28;20037;-78
2021/03/08 11:16:10;;;;;;;14.93;8.50;;;13.60;19.20;;;;;;5010885;28;20045;-77
2021/03/08 11:18:35;;;;;;;15.77;8.60;;;11.20;18.80;;;;;;5010987;28;20069;-78
2021/03/08 11:21:33;;;;;;;18.45;9.02;;;11.70;21.60;;;;;;5012830;28;20470;-78
2021/03/08 11:24:21;;;;;;;15.73;8.20;;;12.20;20.80;;;;;;5008790;28;20041;-77
2021/03/08 11:27:13;;;;;;;15.80;8.13;;;12.70;19.90;;;;;;5009967;28;20045;-78
2021/03/08 11:29:40;;;;;;;19.25;8.32;;;12.90;19.50;;;;;;5013845;28;20130;-78
2021/03/08 11:32:07;;;;;;;19.30;9.07;;;12.70;19.20;;;;;;5011690;28;20041;-77
2021/03/08 11:34:44;;;;;;;14.32;8.80;;;13.10;19.50;;;;;;5018616;28;20132;-78
2021/03/08 11:37:16;;;;;;;19.27;9.00;;;13.20;18.80;;;;;;5009236;28;20129;-78
2021/03/08 11:39:43;;;;;;;15.93;9.60;;;13.30;18.80;;;;;;5012148;28;20046;-77
2021/03/08 11:42:09;;;;;;;17.02;8.60;;;12.70;19.80;;;;;;5015575;28;20061;-79
2021/03/08 11:44:35;;;;;;;16.13;8.68;;;12.20;19.20;;;;;;5011376;28;20396;-79
2021/03/08 11:47:01;;;;;;;13.35;8.68;;;11.90;21.20;;;;;;5011872;28;21561;-78
2021/03/08 11:49:26;;;;;;;14.63;9.45;;;11.60;21.90;;;;;;5013757;28;20638;-78
2021/03/08 11:51:53;;;;;;;19.33;10.00;;;10.60;23.30;;;;;;5012540;28;20639;-78
2021/03/08 11:54:18;;;;;;;19.63;9.25;;;10.40;23.50;;;;;;5011557;28;20151;-78
2021/03/08 11:56:44;;;;;;;23.50;10.77;;;10.30;23.60;;;;;;5010839;28;20492;-77
2021/03/08 11:59:10;;;;;;;19.98;9.38;;;9.90;25.20;;;;;;5010415;28;20721;-77
2021/03/08 12:01:36;;;;;;;16.02;8.55;;;9.50;25.50;;;;;;5011943;28;20437;-76
2021/03/08 12:04:01;;;;;;;18.13;9.13;;;9.20;26.00;;;;;;5012927;28;20038;-77
2021/03/08 12:06:27;;;;;;;15.55;9.05;;;8.90;25.80;;;;;;5011414;28;20044;-79
2021/03/08 12:08:52;;;;;;;15.02;8.07;;;8.80;26.10;;;;;;5014686;28;20040;-77
2021/03/08 12:11:18;;;;;;;14.57;8.45;;;8.80;26.80;;;;;;5012547;28;20065;-78
2021/03/08 12:13:44;;;;;;;18.33;8.52;;;8.50;26.50;;;;;;5014381;28;20046;-78
2021/03/08 12:16:09;;;;;;;13.65;7.95;;;8.60;25.90;;;;;;5013606;28;20038;-78
2021/03/08 12:18:35;;;;;;;18.80;9.02;;;8.60;26.00;;;;;;5012802;28;20702;-78
2021/03/08 12:21:01;;;;;;;17.08;8.88;;;8.40;26.60;;;;;;5013078;28;20061;-79
2021/03/08 12:23:26;;;;;;;20.52;8.77;;;8.70;26.50;;;;;;5027097;28;20193;-78
2021/03/08 12:25:52;;;;;;;13.68;7.78;;;8.80;26.20;;;;;;5013886;28;20052;-80
2021/03/08 12:28:19;;;;;;;15.18;8.55;;;8.80;26.30;;;;;;5011582;28;20042;-78
2021/03/08 12:30:45;;;;;;;14.45;8.25;;;8.70;26.40;;;;;;5008659;28;20815;-78
2021/03/08 12:33:10;;;;;;;14.43;7.90;;;8.70;25.80;;;;;;5010731;28;20046;-77
2021/03/08 12:35:36;;;;;;;16.80;8.30;;;8.80;26.30;;;;;;5028526;28;20049;-77
2021/03/08 12:38:02;;;;;;;17.38;9.55;;;8.70;26.00;;;;;;5015966;28;20033;-76
2021/03/08 12:40:27;;;;;;;17.00;9.65;;;8.70;27.00;;;;;;5014285;28;20124;-77
2021/03/08 12:42:53;;;;;;;17.50;10.40;;;8.30;26.70;;;;;;5015453;28;20092;-77
2021/03/08 12:45:18;;;;;;;20.08;10.32;;;8.50;27.70;;;;;;5015434;28;20421;-77
2021/03/08 12:47:44;;;;;;;20.83;10.32;;;8.70;27.30;;;;;;5014984;28;20116;-78